Time,TemperatureF,DewpointF,PressureIn,WindDirection,WindDirectionDegrees,WindSpeedMPH,WindSpeedGustMPH,Humidity,HourlyPrecipIn,Conditions,Clouds,dailyrainin,SoftwareType,DateUTC
2013-07-16 00:00:00,75.6,73.1,30.23,ESE,117,0.0,0.0,92,0.00,,---,0.00,VWS V14.00,2013-07-16 04:00:00,
2013-07-16 00:30:00,75.2,72.7,30.23,ESE,117,0.0,0.0,92,0.00,,---,0.00,VWS V14.00,2013-07-16 04:30:00,
2013-07-16 01:00:00,74.7,72.6,30.24,ESE,117,0.0,0.0,93,0.00,,---,0.00,VWS V14.00,2013-07-16 05:00:00,
2013-07-16 01:30:00,74.4,72.2,30.24,ESE,117,0.0,0.0,93,0.00,,---,0.00,VWS V14.00,2013-07-16 05:30:00,
2013-07-16 02:00:00,74.0,72.2,30.24,ESE,117,0.0,0.0,94,0.00,,---,0.00,VWS V14.00,2013-07-16 06:00:00,
2013-07-16 02:01:00,74.0,72.2,30.24,ESE,117,0.0,0.0,94,0.00,,---,0.00,VWS V14.00,2013-07-16 06:01:00,
2013-07-16 02:30:00,73.9,72.1,30.24,ESE,117,0.0,0.0,94,0.00,,---,0.00,VWS V14.00,2013-07-16 06:30:00,
2013-07-16 03:00:00,73.7,71.9,30.25,ESE,117,0.0,0.0,94,0.00,,---,0.00,VWS V14.00,2013-07-16 07:00:00,
2013-07-16 03:30:00,73.3,71.8,30.25,ESE,117,0.0,0.0,95,0.00,,---,0.00,VWS V14.00,2013-07-16 07:30:00,
2013-07-16 04:00:00,72.9,71.4,30.24,ESE,117,0.0,0.0,95,0.00,,---,0.00,VWS V14.00,2013-07-16 08:00:00,
2013-07-16 04:30:00,72.6,71.4,30.24,ESE,117,0.0,0.0,96,0.00,,---,0.00,VWS V14.00,2013-07-16 08:30:00,
2013-07-16 05:00:00,72.4,71.2,30.23,ESE,117,0.0,0.0,96,0.00,,---,0.00,VWS V14.00,2013-07-16 09:00:00,
2013-07-16 05:30:00,72.0,70.8,30.24,ESE,117,0.0,0.0,96,0.00,,---,0.00,VWS V14.00,2013-07-16 09:30:00,
2013-07-16 06:00:00,71.9,70.7,30.25,ESE,117,0.0,0.0,96,0.00,,---,0.00,VWS V14.00,2013-07-16 10:00:00,
2013-07-16 06:30:00,71.7,70.5,30.26,ESE,117,0.0,0.0,96,0.00,,---,0.00,VWS V14.00,2013-07-16 10:30:00,
2013-07-16 07:00:00,71.8,70.9,30.26,ESE,117,0.0,0.0,97,0.00,,---,0.00,VWS V14.00,2013-07-16 11:00:00,
2013-07-16 07:30:00,72.7,71.8,30.27,ESE,117,0.0,0.0,97,0.00,,---,0.00,VWS V14.00,2013-07-16 11:30:00,
2013-07-16 08:00:00,74.0,72.8,30.28,ESE,117,0.0,0.0,96,0.00,,---,0.00,VWS V14.00,2013-07-16 12:00:00,
2013-07-16 08:30:00,77.2,74.0,30.29,SSE,159,0.0,0.0,90,0.00,,---,0.00,VWS V14.00,2013-07-16 12:30:00,
2013-07-16 09:00:00,79.2,74.3,30.29,SSE,159,0.0,0.0,85,0.00,,---,0.00,VWS V14.00,2013-07-16 13:00:00,
2013-07-16 09:30:00,80.5,73.4,30.30,NW,319,2.0,10.0,79,0.00,,---,0.00,VWS V14.00,2013-07-16 13:30:00,
2013-07-16 10:00:00,81.5,74.4,30.30,NW,312,3.0,5.0,79,0.00,,---,0.00,VWS V14.00,2013-07-16 14:00:00,
2013-07-16 10:30:00,82.2,73.9,30.29,WNW,285,2.0,6.0,76,0.00,,---,0.00,VWS V14.00,2013-07-16 14:30:00,
2013-07-16 11:00:00,82.8,73.7,30.29,NW,307,1.0,6.0,74,0.00,,---,0.00,VWS V14.00,2013-07-16 15:00:00,
2013-07-16 11:30:00,83.7,72.9,30.29,West,276,4.0,8.0,70,0.00,,---,0.00,VWS V14.00,2013-07-16 15:30:00,
2013-07-16 12:00:00,84.7,74.3,30.28,WSW,238,1.0,5.0,71,0.00,,---,0.00,VWS V14.00,2013-07-16 16:00:00,
2013-07-16 12:30:00,85.5,74.6,30.28,West,263,2.0,7.0,70,0.00,,---,0.00,VWS V14.00,2013-07-16 16:30:00,
2013-07-16 13:00:00,86.4,74.6,30.28,West,271,0.0,5.0,68,0.00,,---,0.00,VWS V14.00,2013-07-16 17:00:00,
2013-07-16 13:30:00,86.7,74.0,30.27,WSW,250,1.0,6.0,66,0.00,,---,0.00,VWS V14.00,2013-07-16 17:30:00,
2013-07-16 14:00:00,87.0,74.7,30.27,West,281,2.0,9.0,67,0.00,,---,0.00,VWS V14.00,2013-07-16 18:00:00,
2013-07-16 14:30:00,89.5,74.8,30.26,WNW,301,1.0,6.0,62,0.00,,---,0.00,VWS V14.00,2013-07-16 18:30:00,
2013-07-16 15:00:00,87.8,74.6,30.26,NW,315,3.0,7.0,65,0.00,,---,0.00,VWS V14.00,2013-07-16 19:00:00,
2013-07-16 15:30:00,89.0,74.8,30.25,SW,233,4.0,9.0,63,0.00,,---,0.00,VWS V14.00,2013-07-16 19:30:00,
2013-07-16 16:00:00,89.3,71.6,30.25,WNW,287,2.0,6.0,56,0.00,,---,0.00,VWS V14.00,2013-07-16 20:00:00,
2013-07-16 16:30:00,89.6,73.9,30.24,WNW,284,4.0,6.0,60,0.00,,---,0.00,VWS V14.00,2013-07-16 20:30:00,
2013-07-16 17:00:00,90.0,73.8,30.24,West,274,1.0,6.0,59,0.00,,---,0.00,VWS V14.00,2013-07-16 21:00:00,
2013-07-16 17:30:00,91.3,75.0,30.24,WNW,301,4.0,5.0,59,0.00,,---,0.00,VWS V14.00,2013-07-16 21:30:00,
2013-07-16 18:00:00,89.9,74.7,30.24,WNW,288,4.0,6.0,61,0.00,,---,0.00,VWS V14.00,2013-07-16 22:00:00,
2013-07-16 18:30:00,91.3,76.0,30.23,WNW,295,3.0,4.0,61,0.00,,---,0.00,VWS V14.00,2013-07-16 22:30:00,
2013-07-16 19:00:00,90.2,73.4,30.23,West,276,3.0,6.0,58,0.00,,---,0.00,VWS V14.00,2013-07-16 23:00:00,
2013-07-16 19:30:00,90.4,75.1,30.22,West,263,1.0,4.0,61,0.00,,---,0.00,VWS V14.00,2013-07-16 23:30:00,
2013-07-16 20:00:00,89.7,75.0,30.22,WSW,257,2.0,5.0,62,0.00,,---,0.00,VWS V14.00,2013-07-17 00:00:00,
2013-07-16 20:30:00,90.4,77.0,30.23,South,169,0.0,3.0,65,0.00,,---,0.00,VWS V14.00,2013-07-17 00:30:00,
2013-07-16 21:00:00,84.3,75.5,30.23,ESE,107,0.0,1.0,75,0.00,,---,0.00,VWS V14.00,2013-07-17 01:00:00,
2013-07-16 21:30:00,80.4,74.0,30.23,ESE,107,0.0,0.0,81,0.00,,---,0.00,VWS V14.00,2013-07-17 01:30:00,
2013-07-16 22:00:00,78.7,73.8,30.24,ESE,107,0.0,0.0,85,0.00,,---,0.00,VWS V14.00,2013-07-17 02:00:00,
2013-07-16 22:30:00,77.6,73.4,30.25,ESE,108,0.0,0.0,87,0.00,,---,0.00,VWS V14.00,2013-07-17 02:30:00,
2013-07-16 23:00:00,77.0,73.5,30.24,ESE,108,0.0,0.0,89,0.00,,---,0.00,VWS V14.00,2013-07-17 03:00:00,
2013-07-16 23:30:00,76.2,73.1,30.24,ESE,108,0.0,0.0,90,0.00,,---,0.00,VWS V14.00,2013-07-17 03:30:00,